createdAt,value
2023-03-21T00:00:59.471Z,64.67
2023-03-21T00:03:28.936Z,58.00
2023-03-21T00:05:58.261Z,61.50
2023-03-21T00:08:27.851Z,60.00
2023-03-21T00:11:00.889Z,56.00
2023-03-21T00:13:38.544Z,58.00
2023-03-21T00:16:20.764Z,62.67
2023-03-21T00:18:58.718Z,59.00
2023-03-21T00:24:24.168Z,60.00
2023-03-21T00:26:53.916Z,56.00
2023-03-21T00:29:22.785Z,56.00
2023-03-21T00:31:51.454Z,53.50
2023-03-21T00:34:27.093Z,59.00
2023-03-21T00:37:07.459Z,53.50
2023-03-21T00:39:36.891Z,53.00
2023-03-21T00:42:05.877Z,54.00
2023-03-21T00:44:37.069Z,55.00
2023-03-21T00:47:08.251Z,57.00
2023-03-21T00:49:38.648Z,56.00
2023-03-21T00:52:27.360Z,56.67
2023-03-21T00:54:59.765Z,50.00
2023-03-21T00:57:38.550Z,50.50
2023-03-21T01:00:14.844Z,55.50
2023-03-21T01:03:14.148Z,58.00
2023-03-21T01:06:05.116Z,53.00
2023-03-21T01:08:51.285Z,55.00
2023-03-21T01:11:28.744Z,50.50
2023-03-21T01:14:10.815Z,53.00
2023-03-21T01:16:40.245Z,46.50
2023-03-21T01:19:24.961Z,50.67
2023-03-21T01:21:57.969Z,45.50
2023-03-21T01:24:26.751Z,46.50
2023-03-21T01:26:56.249Z,50.33
2023-03-21T01:29:24.933Z,49.00
2023-03-21T01:31:53.672Z,53.00
2023-03-21T01:34:23.037Z,44.00
2023-03-21T01:36:52.209Z,46.50
2023-03-21T01:39:21.716Z,44.33
2023-03-21T01:41:50.461Z,41.67
2023-03-21T01:44:20.514Z,48.50
2023-03-21T01:47:07.766Z,42.67
2023-03-21T01:49:46.512Z,46.00
2023-03-21T01:52:35.947Z,44.50
2023-03-21T01:55:12.593Z,47.33
2023-03-21T01:58:04.403Z,43.33
2023-03-21T02:00:36.645Z,45.00
2023-03-21T02:03:16.996Z,51.00
2023-03-21T02:06:12.883Z,44.67
2023-03-21T02:08:45.540Z,50.00
2023-03-21T02:11:14.405Z,49.50
2023-03-21T02:13:43.895Z,52.33
2023-03-21T02:16:30.301Z,48.00
2023-03-21T02:19:29.619Z,51.33
2023-03-21T02:22:49.252Z,50.00
2023-03-21T02:26:00.062Z,54.33
2023-03-21T02:28:56.562Z,44.00
2023-03-21T02:32:22.600Z,48.33
2023-03-21T02:35:37.112Z,45.00
2023-03-21T02:38:36.495Z,50.00
2023-03-21T02:41:20.384Z,46.00
2023-03-21T02:44:09.278Z,48.50
2023-03-21T02:47:20.780Z,47.00
2023-03-21T02:49:58.529Z,52.00
2023-03-21T02:52:39.100Z,55.00
2023-03-21T02:55:19.096Z,60.67
2023-03-21T02:57:53.242Z,59.67
2023-03-21T03:00:28.470Z,58.67
2023-03-21T03:03:08.713Z,53.67
2023-03-21T03:06:19.074Z,52.00
2023-03-21T03:09:19.085Z,50.00
2023-03-21T03:12:03.156Z,51.33
2023-03-21T03:15:13.806Z,51.33
2023-03-21T03:18:07.942Z,51.00
2023-03-21T03:21:15.958Z,46.00
2023-03-21T03:24:09.671Z,51.67
2023-03-21T03:27:20.268Z,51.67
2023-03-21T03:29:51.897Z,54.33
2023-03-21T03:32:36.847Z,48.33
2023-03-21T03:35:07.671Z,52.33
2023-03-21T03:37:37.997Z,48.50
2023-03-21T03:40:29.158Z,48.00
2023-03-21T03:43:06.335Z,51.50
2023-03-21T03:45:48.374Z,46.50
2023-03-21T03:48:31.397Z,45.50
2023-03-21T03:51:56.341Z,47.67
2023-03-21T03:54:43.058Z,50.67
2023-03-21T03:57:14.004Z,37.00
2023-03-21T03:59:45.930Z,39.00
2023-03-21T04:02:17.397Z,50.00
2023-03-21T04:04:47.201Z,50.00
2023-03-21T04:07:16.197Z,44.50
2023-03-21T04:09:45.625Z,41.00
2023-03-21T04:12:15.535Z,45.00
2023-03-21T04:14:46.049Z,44.33
2023-03-21T04:17:17.338Z,47.00
2023-03-21T04:19:46.803Z,43.50
2023-03-21T04:22:17.284Z,44.00
2023-03-21T04:24:47.253Z,44.67
2023-03-21T04:27:15.993Z,43.00
2023-03-21T04:29:45.752Z,46.00
2023-03-21T04:32:19.930Z,45.33
2023-03-21T04:34:54.301Z,43.67
2023-03-21T04:37:23.940Z,44.00
2023-03-21T04:39:52.537Z,44.00
2023-03-21T04:42:22.022Z,39.67
2023-03-21T04:44:51.082Z,39.67
2023-03-21T04:47:20.607Z,51.00
2023-03-21T04:49:50.084Z,41.33
2023-03-21T04:52:18.754Z,36.00
2023-03-21T04:54:47.379Z,43.50
2023-03-21T04:57:16.039Z,40.00
2023-03-21T04:59:44.717Z,37.00
2023-03-21T05:02:15.041Z,44.00
2023-03-21T05:04:43.925Z,35.33
2023-03-21T05:07:13.394Z,39.00
2023-03-21T05:09:42.085Z,38.00
2023-03-21T05:12:10.858Z,38.33
2023-03-21T05:14:39.497Z,37.50
2023-03-21T05:17:10.703Z,33.33
2023-03-21T05:19:40.790Z,37.50
2023-03-21T05:22:12.150Z,39.00
2023-03-21T05:24:42.080Z,39.67
2023-03-21T05:27:10.877Z,38.33
2023-03-21T05:29:40.488Z,39.67
2023-03-21T05:32:09.094Z,30.33
2023-03-21T05:34:38.547Z,35.00
2023-03-21T05:37:07.174Z,38.00
2023-03-21T05:39:36.734Z,36.00
2023-03-21T05:42:05.461Z,34.67
2023-03-21T05:44:34.125Z,35.33
2023-03-21T05:47:04.953Z,41.50
2023-03-21T05:49:34.449Z,56.33
2023-03-21T05:52:04.410Z,54.33
2023-03-21T05:54:33.188Z,32.00
2023-03-21T05:57:04.555Z,54.33
2023-03-21T05:59:33.652Z,41.00
2023-03-21T06:02:02.398Z,37.67
2023-03-21T06:04:32.770Z,37.67
2023-03-21T06:07:01.457Z,32.00
2023-03-21T06:09:31.188Z,27.00
2023-03-21T06:11:59.836Z,34.00
2023-03-21T06:14:28.737Z,36.00
2023-03-21T06:16:57.437Z,34.67
2023-03-21T06:19:27.333Z,36.33
2023-03-21T06:21:56.745Z,30.67
2023-03-21T06:24:26.697Z,30.33
2023-03-21T06:26:56.221Z,24.33
2023-03-21T06:29:24.862Z,26.33
2023-03-21T06:31:53.473Z,23.67
2023-03-21T06:34:22.209Z,31.00
2023-03-21T06:36:52.259Z,26.33
2023-03-21T06:39:21.644Z,30.00
2023-03-21T06:41:50.502Z,26.00
2023-03-21T06:44:19.056Z,23.67
2023-03-21T06:46:47.687Z,30.00
2023-03-21T06:49:16.516Z,25.67
2023-03-21T06:51:45.421Z,22.00
2023-03-21T06:54:14.840Z,22.33
2023-03-21T06:56:43.421Z,24.33
2023-03-21T06:59:12.286Z,25.00
2023-03-21T07:01:41.065Z,23.67
2023-03-21T07:04:11.214Z,21.00
2023-03-21T07:06:40.015Z,25.67
2023-03-21T07:09:08.823Z,19.50
2023-03-21T07:11:38.091Z,24.67
2023-03-21T07:14:06.967Z,27.33
2023-03-21T07:16:34.738Z,21.00
2023-03-21T07:19:03.381Z,25.67
2023-03-21T07:21:32.525Z,22.67
2023-03-21T07:24:01.281Z,22.67
2023-03-21T07:26:29.919Z,24.00
2023-03-21T07:28:58.544Z,21.00
2023-03-21T07:31:27.260Z,16.00
2023-03-21T07:33:55.764Z,17.33
2023-03-21T07:36:24.616Z,21.67
2023-03-21T07:38:53.205Z,22.33
2023-03-21T07:41:22.120Z,23.33
2023-03-21T07:43:50.731Z,20.33
2023-03-21T07:46:19.417Z,18.00
2023-03-21T07:48:48.474Z,25.33
2023-03-21T07:51:17.155Z,18.00
2023-03-21T07:53:48.728Z,19.33
2023-03-21T07:56:17.520Z,17.50
2023-03-21T07:58:46.245Z,20.00
2023-03-21T08:01:14.961Z,18.50
2023-03-21T08:03:44.351Z,20.67
2023-03-21T08:06:12.990Z,24.67
2023-03-21T08:08:41.664Z,17.00
2023-03-21T08:11:12.929Z,16.50
2023-03-21T08:13:42.079Z,14.67
2023-03-21T08:16:10.842Z,14.00
2023-03-21T08:18:39.388Z,14.33
2023-03-21T08:21:09.626Z,11.00
2023-03-21T08:23:38.244Z,13.50
2023-03-21T08:26:07.777Z,12.33
2023-03-21T08:28:39.510Z,9.00
2023-03-21T08:31:13.005Z,13.00
2023-03-21T08:33:41.684Z,14.67
2023-03-21T08:36:10.907Z,12.00
2023-03-21T08:38:39.752Z,12.00
2023-03-21T08:41:08.248Z,12.00
2023-03-21T08:43:36.753Z,10.67
2023-03-21T08:46:05.532Z,12.50
2023-03-21T08:48:34.160Z,11.00
2023-03-21T08:51:02.743Z,10.67
2023-03-21T08:53:31.383Z,12.00
2023-03-21T08:55:59.473Z,17.00
2023-03-21T08:58:27.510Z,9.50
2023-03-21T09:00:56.587Z,11.33
2023-03-21T09:03:27.467Z,11.33
2023-03-21T09:05:56.484Z,8.67
2023-03-21T09:08:24.976Z,10.67
2023-03-21T09:10:57.371Z,9.33
2023-03-21T09:13:26.846Z,7.00
2023-03-21T09:15:58.533Z,7.40
2023-03-21T09:18:49.593Z,7.20
2023-03-21T09:21:21.187Z,9.50
2023-03-21T09:23:53.069Z,9.00
2023-03-21T09:26:21.610Z,9.00
2023-03-21T09:28:49.893Z,5.00
2023-03-21T09:31:23.710Z,7.40
2023-03-21T09:33:53.453Z,6.50
2023-03-21T09:36:26.412Z,7.00
2023-03-21T09:38:57.197Z,8.50
2023-03-21T09:42:00.933Z,8.20
2023-03-21T09:45:16.691Z,6.60
2023-03-21T09:47:53.568Z,5.40
2023-03-21T09:50:35.544Z,5.20
2023-03-21T09:53:16.717Z,5.80
2023-03-21T09:55:47.257Z,6.00
2023-03-21T09:58:32.815Z,4.00
2023-03-21T10:01:34.688Z,5.50
2023-03-21T10:04:06.778Z,6.00
2023-03-21T10:06:40.724Z,3.00
2023-03-21T10:09:21.646Z,5.00
2023-03-21T10:12:21.604Z,3.00
2023-03-21T10:14:59.653Z,2.00
2023-03-21T10:17:44.322Z,6.60
2023-03-21T10:20:23.008Z,5.60
2023-03-21T10:22:58.823Z,4.00
2023-03-21T10:26:05.470Z,7.60
2023-03-21T10:28:52.518Z,6.00
2023-03-21T10:31:27.148Z,5.60
2023-03-21T10:34:03.867Z,5.80
2023-03-21T10:36:34.739Z,4.60
2023-03-21T10:39:22.566Z,4.00
2023-03-21T10:41:51.275Z,3.00
2023-03-21T10:44:21.618Z,4.60
2023-03-21T10:47:06.372Z,3.80
2023-03-21T10:50:06.373Z,3.80
2023-03-21T10:52:31.293Z,5.60
2023-03-21T10:55:36.280Z,3.80
2023-03-21T10:58:35.489Z,6.40
2023-03-21T11:01:13.097Z,3.00
2023-03-21T11:03:47.008Z,7.67
2023-03-21T11:06:32.106Z,7.80
2023-03-21T11:09:09.754Z,9.33
2023-03-21T11:11:50.877Z,5.00
2023-03-21T11:14:51.238Z,15.00
2023-03-21T11:17:24.829Z,6.00
2023-03-21T11:20:00.918Z,5.00
2023-03-21T11:22:43.637Z,10.00
2023-03-21T11:25:33.255Z,3.00
2023-03-21T11:28:23.088Z,11.33
2023-03-21T11:30:58.662Z,7.00
2023-03-21T11:33:46.697Z,3.00
2023-03-21T11:36:19.143Z,5.00
2023-03-21T11:39:03.419Z,5.00
2023-03-21T11:41:35.317Z,5.40
2023-03-21T11:44:05.076Z,5.00
2023-03-21T11:46:41.574Z,4.00
2023-03-21T11:49:11.836Z,7.67
2023-03-21T11:52:21.839Z,5.20
2023-03-21T11:55:52.994Z,6.80
2023-03-21T11:59:08.048Z,3.67
2023-03-21T12:02:04.253Z,9.00
2023-03-21T12:04:47.044Z,6.00
2023-03-21T12:07:26.566Z,4.60
2023-03-21T12:10:21.576Z,4.67
2023-03-21T12:13:33.151Z,4.40
2023-03-21T12:16:37.630Z,18.67
2023-03-21T12:19:27.560Z,10.00
2023-03-21T12:22:37.037Z,15.00
2023-03-21T12:25:25.723Z,3.00
2023-03-21T12:28:12.764Z,11.33
2023-03-21T12:31:14.257Z,51.00
2023-03-21T12:34:46.801Z,5.00
2023-03-21T12:37:33.949Z,6.00
2023-03-21T12:40:55.605Z,14.20
2023-03-21T12:43:32.284Z,12.67
2023-03-21T12:46:40.611Z,25.00
2023-03-21T12:49:29.572Z,58.00
2023-03-21T12:52:28.569Z,21.67
2023-03-21T12:55:19.474Z,48.00
2023-03-21T12:58:25.486Z,21.00
2023-03-21T13:01:01.689Z,44.67
2023-03-21T13:03:43.944Z,23.00
2023-03-21T13:06:18.365Z,2.00
2023-03-21T13:09:14.862Z,3.00
2023-03-21T13:11:45.782Z,37.67
2023-03-21T13:14:39.637Z,39.67
2023-03-21T13:17:27.769Z,30.67
2023-03-21T13:20:41.976Z,20.00
2023-03-21T13:23:11.999Z,11.67
2023-03-21T13:25:53.167Z,2.00
2023-03-21T13:28:35.420Z,1.00
2023-03-21T13:31:26.537Z,0.00
2023-03-21T13:33:59.894Z,1.67
2023-03-21T13:36:31.851Z,4.00
2023-03-21T13:39:06.073Z,2.40
2023-03-21T13:41:43.145Z,11.00
2023-03-21T13:45:00.862Z,8.00
2023-03-21T13:48:00.723Z,2.00
2023-03-21T13:51:02.158Z,5.20
2023-03-21T13:53:45.900Z,4.00
2023-03-21T13:56:17.220Z,6.00
2023-03-21T13:58:46.717Z,4.60
2023-03-21T14:01:42.524Z,6.00
2023-03-21T14:04:24.150Z,8.00
2023-03-21T14:07:08.647Z,4.00
2023-03-21T14:09:50.803Z,4.60
2023-03-21T14:12:32.568Z,3.00
2023-03-21T14:15:27.789Z,1.33
2023-03-21T14:18:16.085Z,4.33
2023-03-21T14:20:57.036Z,14.50
2023-03-21T14:23:25.827Z,4.00
2023-03-21T14:25:53.723Z,16.50
2023-03-21T14:28:33.263Z,2.00
2023-03-21T14:31:04.646Z,5.20
2023-03-21T14:33:49.615Z,7.00
2023-03-21T14:36:36.061Z,5.60
2023-03-21T14:39:28.977Z,4.50
2023-03-21T14:42:13.759Z,7.00
2023-03-21T14:44:55.416Z,6.40
2023-03-21T14:47:32.244Z,19.00
2023-03-21T14:50:03.398Z,7.00
2023-03-21T14:52:35.651Z,13.50
2023-03-21T14:55:15.766Z,7.00
2023-03-21T14:57:43.668Z,6.00
2023-03-21T15:00:31.017Z,5.00
2023-03-21T15:03:01.327Z,7.80
2023-03-21T15:05:39.657Z,5.50
2023-03-21T15:08:18.100Z,5.00
2023-03-21T15:11:12.067Z,8.60
2023-03-21T15:13:52.682Z,6.00
2023-03-21T15:16:21.040Z,6.00
2023-03-21T15:18:50.506Z,10.00
2023-03-21T15:21:38.495Z,4.00
2023-03-21T15:24:28.522Z,3.50
2023-03-21T15:27:07.437Z,4.50
2023-03-21T15:29:37.176Z,6.00
2023-03-21T15:32:19.921Z,4.00
2023-03-21T15:34:50.621Z,9.80
2023-03-21T15:37:27.790Z,8.40
2023-03-21T15:40:22.554Z,10.00
2023-03-21T15:42:52.800Z,8.80
2023-03-21T15:45:27.702Z,17.00
2023-03-21T15:48:08.256Z,12.67
2023-03-21T15:50:41.165Z,16.00
2023-03-21T15:53:18.268Z,17.00
2023-03-21T15:55:52.081Z,24.67
2023-03-21T15:58:34.794Z,21.67
2023-03-21T16:01:26.569Z,10.00
2023-03-21T16:04:13.384Z,8.00
2023-03-21T16:07:17.379Z,8.60
2023-03-21T16:09:47.485Z,13.00
2023-03-21T16:12:18.769Z,17.00
2023-03-21T16:14:48.913Z,19.33
2023-03-21T16:17:39.640Z,18.00
2023-03-21T16:20:23.791Z,29.67
2023-03-21T16:22:53.606Z,26.00
2023-03-21T16:25:22.762Z,22.00
2023-03-21T16:27:51.583Z,22.67
2023-03-21T16:30:23.810Z,33.33
2023-03-21T16:32:52.436Z,17.00
2023-03-21T16:35:23.480Z,32.33
2023-03-21T16:37:52.299Z,28.00
2023-03-21T16:40:26.475Z,18.00
2023-03-21T16:42:55.477Z,15.00
2023-03-21T16:45:25.115Z,27.67
2023-03-21T16:47:53.757Z,20.50
2023-03-21T16:50:43.059Z,18.00
2023-03-21T16:53:11.769Z,19.00
2023-03-21T16:55:40.493Z,26.00
2023-03-21T16:58:11.653Z,26.00
2023-03-21T17:00:40.536Z,27.00
2023-03-21T17:03:19.263Z,26.00
2023-03-21T17:05:48.979Z,54.33
2023-03-21T17:08:21.997Z,63.75
2023-03-21T17:10:51.485Z,73.25
2023-03-21T17:13:20.965Z,59.25
2023-03-21T17:15:49.552Z,52.00
2023-03-21T17:18:18.270Z,43.00
2023-03-21T17:20:46.935Z,30.33
2023-03-21T17:23:15.708Z,24.50
2023-03-21T17:25:44.280Z,28.00
2023-03-21T17:28:13.740Z,33.00
2023-03-21T17:30:43.568Z,38.33
2023-03-21T17:33:14.890Z,47.00
2023-03-21T17:35:43.662Z,74.33
2023-03-21T17:38:17.744Z,83.25
2023-03-21T17:40:45.512Z,85.00
2023-03-21T17:43:21.118Z,87.75
2023-03-21T17:45:49.076Z,78.00
2023-03-21T17:48:17.960Z,72.00
2023-03-21T17:50:47.643Z,76.50
2023-03-21T17:53:16.455Z,67.67
2023-03-21T17:55:46.833Z,83.00
2023-03-21T17:58:17.846Z,67.00
2023-03-21T18:00:47.403Z,58.33
2023-03-21T18:03:18.388Z,71.67
2023-03-21T18:05:48.893Z,65.00
2023-03-21T18:08:18.428Z,71.67
2023-03-21T18:10:47.935Z,85.25
2023-03-21T18:13:17.589Z,82.25
2023-03-21T18:15:48.348Z,67.67
2023-03-21T18:18:18.406Z,75.00
2023-03-21T18:20:53.733Z,68.00
2023-03-21T18:23:23.953Z,56.67
2023-03-21T18:25:53.649Z,68.25
2023-03-21T18:28:23.034Z,64.67
2023-03-21T18:31:08.186Z,46.33
2023-03-21T18:33:41.195Z,57.00
2023-03-21T18:36:15.538Z,52.33
2023-03-21T18:38:46.167Z,46.67
2023-03-21T18:41:18.950Z,46.33
2023-03-21T18:44:13.582Z,38.33
2023-03-21T18:46:37.833Z,47.67
2023-03-21T18:49:56.101Z,51.33
2023-03-21T18:51:57.823Z,47.00
2023-03-21T18:54:27.839Z,45.67
2023-03-21T18:57:33.829Z,46.33
2023-03-21T18:59:47.809Z,51.00
2023-03-21T19:02:17.311Z,51.00
2023-03-21T19:04:46.769Z,49.67
2023-03-21T19:07:15.657Z,52.50
2023-03-21T19:10:15.368Z,48.67
2023-03-21T19:12:35.335Z,49.67
2023-03-21T19:15:06.340Z,49.67
2023-03-21T19:18:24.849Z,49.00
2023-03-21T19:20:23.929Z,46.00
2023-03-21T19:22:53.639Z,43.00
2023-03-21T19:25:22.329Z,35.00
2023-03-21T19:27:52.315Z,31.33
2023-03-21T19:30:22.078Z,45.33
2023-03-21T19:32:50.799Z,57.67
2023-03-21T19:35:20.440Z,58.67
2023-03-21T19:37:49.887Z,58.67
2023-03-21T19:40:20.047Z,53.00
2023-03-21T19:42:49.483Z,48.00
2023-03-21T19:45:19.200Z,51.67
2023-03-21T19:47:48.690Z,45.00
2023-03-21T19:53:06.736Z,53.00
2023-03-21T19:55:36.582Z,54.33
2023-03-21T19:58:07.236Z,64.00
2023-03-21T20:00:37.745Z,58.00
2023-03-21T20:03:09.003Z,43.00
2023-03-21T20:05:38.785Z,87.67
2023-03-21T20:08:10.993Z,54.00
2023-03-21T20:10:41.641Z,72.33
2023-03-21T20:13:11.215Z,49.67
2023-03-21T20:15:47.768Z,58.33
2023-03-21T20:18:18.776Z,53.67
2023-03-21T20:20:48.426Z,59.00
2023-03-21T20:23:19.452Z,76.67
2023-03-21T20:25:49.690Z,69.33
2023-03-21T20:28:25.513Z,61.33
2023-03-21T20:30:59.522Z,45.00
2023-03-21T20:33:30.350Z,45.33
2023-03-21T20:38:55.529Z,43.33
2023-03-21T20:41:25.009Z,49.33
2023-03-21T20:46:47.724Z,40.00
2023-03-21T20:49:17.261Z,41.33
2023-03-21T20:52:46.233Z,45.67
2023-03-21T20:54:36.654Z,43.00
2023-03-21T20:57:05.814Z,43.00
2023-03-21T20:59:35.332Z,47.67
2023-03-21T21:02:04.272Z,45.33
2023-03-21T21:07:23.391Z,45.50
2023-03-21T21:09:54.680Z,45.67
2023-03-21T21:12:28.716Z,46.67
2023-03-21T21:14:57.466Z,56.00
2023-03-21T21:17:53.992Z,34.00
2023-03-21T21:20:17.145Z,41.00
2023-03-21T21:23:00.459Z,47.50
2023-03-21T21:25:33.085Z,47.50
2023-03-21T21:28:03.866Z,47.67
2023-03-21T21:30:34.193Z,45.00
2023-03-21T21:33:02.887Z,50.00
2023-03-21T21:35:33.704Z,51.67
2023-03-21T21:38:02.741Z,48.00
2023-03-21T21:40:32.268Z,50.00
2023-03-21T21:43:03.649Z,49.00
2023-03-21T21:45:33.679Z,54.00
2023-03-21T21:48:03.296Z,57.00
2023-03-21T21:50:31.991Z,56.00
2023-03-21T21:53:04.398Z,62.00
2023-03-21T21:55:35.174Z,63.33
2023-03-21T21:58:04.841Z,59.50
2023-03-21T22:00:34.673Z,67.33
2023-03-21T22:03:04.499Z,65.67
2023-03-21T22:05:34.053Z,66.67
2023-03-21T22:08:04.301Z,64.00
2023-03-21T22:10:34.154Z,60.00
2023-03-21T22:13:03.706Z,61.33
2023-03-21T22:15:33.487Z,63.67
2023-03-21T22:18:03.944Z,68.00
2023-03-21T22:20:34.139Z,74.67
2023-03-21T22:23:03.907Z,86.00
2023-03-21T22:25:33.456Z,86.25
2023-03-21T22:28:03.257Z,75.33
2023-03-21T22:30:33.994Z,72.33
2023-03-21T22:33:09.541Z,74.00
2023-03-21T22:35:39.536Z,87.00
2023-03-21T22:38:09.143Z,73.00
2023-03-21T22:40:39.000Z,65.33
2023-03-21T22:43:08.932Z,61.67
2023-03-21T22:45:38.480Z,69.00
2023-03-21T22:48:08.075Z,64.00
2023-03-21T22:50:38.190Z,62.67
2023-03-21T22:53:08.065Z,63.67
2023-03-21T22:55:38.478Z,63.33
2023-03-21T22:58:08.016Z,66.33
2023-03-21T23:00:37.781Z,60.00
2023-03-21T23:03:07.394Z,64.33
2023-03-21T23:05:41.788Z,64.33
2023-03-21T23:08:11.872Z,71.33
2023-03-21T23:10:43.956Z,57.00
2023-03-21T23:13:13.580Z,65.67
2023-03-21T23:15:43.140Z,64.00
2023-03-21T23:18:12.003Z,62.00
2023-03-21T23:20:41.994Z,67.33
2023-03-21T23:23:11.830Z,65.67
2023-03-21T23:25:42.547Z,69.00
2023-03-21T23:28:12.161Z,68.67
2023-03-21T23:30:42.033Z,65.33
2023-03-21T23:33:10.971Z,57.50
2023-03-21T23:35:40.524Z,61.67
2023-03-21T23:38:09.999Z,60.00
2023-03-21T23:40:40.539Z,65.33
2023-03-21T23:43:10.538Z,63.00
2023-03-21T23:45:39.991Z,58.00
2023-03-21T23:48:09.583Z,61.33
2023-03-21T23:50:39.544Z,64.33
2023-03-21T23:53:09.109Z,60.00
2023-03-21T23:55:41.224Z,62.33
2023-03-21T23:58:10.931Z,60.67
